TAF Text Data
IDs:
Format:
Raw Decoded Include METAR

Data at: 0136 UTC 19 Oct 2021

KAUS 182322Z 1900/2006 16007KT P6SM BKN250
  FM191000 15004KT P6SM FEW022 BKN250
  FM191700 16010KT P6SM FEW035 BKN250
  FM200500 16008KT P6SM BKN022